Port Lavaca, Texas
Current Conditions -  °F | °C
As of 6:55 PM on Saturday 22 Nov 2014 (Local Time) from KPKV Reporting Station
Light Rain Light Rain  
Wind Chill: 69°   Ceiling: 1100
Heat Index: 69°   Visibility: 10mi
Dew Point: 67°   Wind: 8mph
Humidity: 91%   Direction: 160°SSE
Pressure: 29.79"   Gusts: NA
Location:  28.62°N, 96.62°W
Report Text: KPKV 230055Z AUTO 16007KT 10SM -RA BKN011 OVC016 21/19 A2979 RMK AO2 T02080193
Loading
Personal Weather Stations






























Interactive Weather Map New forecast layout! Learn more

10-Day Weather Forecast

Advertisements
Track Severe Weather on mobile